Time;durP1;ratioP1;P1;durP2;ratioP2;P2;SDS_P1;SDS_P2;PMS_P1;PMS_P2;Temp;Humidity;BMP_temperature;BMP_pressure;BME280_temperature;BME280_humidity;BME280_pressure;Samples;Min_cycle;Max_cycle;Signal;HPM_P1;HPM_P2
2021/05/02 00:01:06;;;;;;;1.92;1.13;;;;;;;25.61;40.53;94474.03;5037465;28;20040;-76
2021/05/02 00:03:31;;;;;;;3.17;1.40;;;;;;;25.61;40.87;94465.84;5038078;28;20922;-77
2021/05/02 00:05:56;;;;;;;2.22;1.00;;;;;;;25.31;41.26;94432.81;5036940;28;20056;-77
2021/05/02 00:08:22;;;;;;;3.35;1.25;;;;;;;25.50;40.47;94449.72;5036692;28;20788;-77
2021/05/02 00:10:47;;;;;;;2.83;1.08;;;;;;;25.31;41.12;94428.06;5036555;28;20104;-78
2021/05/02 00:13:13;;;;;;;2.42;1.10;;;;;;;25.59;40.71;94449.22;5037842;28;20037;-77
2021/05/02 00:15:38;;;;;;;1.67;1.13;;;;;;;25.59;41.18;94446.47;5036899;28;20037;-77
2021/05/02 00:18:04;;;;;;;2.15;0.93;;;;;;;25.60;40.82;94447.97;5036243;28;20029;-77
2021/05/02 00:20:29;;;;;;;2.20;1.15;;;;;;;25.59;40.99;94447.25;5038227;28;20028;-77
2021/05/02 00:22:57;;;;;;;2.55;1.08;;;;;;;25.58;40.63;94434.81;5038227;28;20032;-77
2021/05/02 00:25:25;;;;;;;2.40;1.08;;;;;;;25.44;40.78;94425.25;5036883;28;20102;-77
2021/05/02 00:27:50;;;;;;;2.58;1.10;;;;;;;25.34;40.93;94401.69;5036160;28;20039;-77
2021/05/02 00:30:20;;;;;;;1.88;1.23;;;;;;;25.61;40.56;94441.22;5028633;28;20017;-77
2021/05/02 00:32:47;;;;;;;3.10;1.45;;;;;;;25.59;40.97;94446.47;5037287;28;20030;-77
2021/05/02 00:35:15;;;;;;;1.92;1.25;;;;;;;25.18;41.29;94375.50;5038172;28;20101;-78
2021/05/02 00:37:41;;;;;;;1.58;1.00;;;;;;;25.52;41.41;94419.84;5036251;28;20032;-77
2021/05/02 00:40:14;;;;;;;1.65;1.00;;;;;;;25.59;40.99;94441.03;5036727;28;20029;-77
2021/05/02 00:42:49;;;;;;;1.50;0.80;;;;;;;25.60;41.22;94439.75;5052931;28;20064;-77
2021/05/02 00:45:50;;;;;;;1.88;0.80;;;;;;;25.58;41.20;94428.63;5037120;28;20037;-77
2021/05/02 00:48:58;;;;;;;2.40;1.02;;;;;;;25.56;41.14;94399.09;5034752;28;20048;-76
2021/05/02 00:51:23;;;;;;;2.60;1.15;;;;;;;25.17;41.21;94356.91;5036524;28;20078;-77
2021/05/02 00:53:58;;;;;;;1.77;1.25;;;;;;;25.57;40.66;94388.88;5036048;28;20040;-77
2021/05/02 00:56:24;;;;;;;2.55;1.73;;;;;;;25.58;41.08;94401.28;5038084;28;20485;-77
2021/05/02 00:58:53;;;;;;;2.53;1.17;;;;;;;25.52;41.52;94376.09;5037574;28;20024;-78
2021/05/02 01:01:20;;;;;;;1.45;0.85;;;;;;;25.52;40.86;94397.97;5037908;28;20021;-78
2021/05/02 01:03:47;;;;;;;2.45;1.42;;;;;;;25.30;40.89;94349.34;5037856;28;20036;-77
2021/05/02 01:06:13;;;;;;;1.80;1.10;;;;;;;25.56;41.10;94371.00;5028470;28;20029;-77
2021/05/02 01:08:38;;;;;;;2.10;1.13;;;;;;;25.56;41.51;94410.03;5036167;28;20041;-76
2021/05/02 01:11:04;;;;;;;2.88;1.92;;;;;;;25.50;41.48;94367.69;5036016;28;20021;-77
2021/05/02 01:13:29;;;;;;;2.15;1.10;;;;;;;25.32;40.94;94363.22;5037176;28;20025;-78
2021/05/02 01:15:58;;;;;;;1.80;0.93;;;;;;;25.55;41.47;94381.22;5052748;28;20024;-77
2021/05/02 01:18:24;;;;;;;2.08;1.02;;;;;;;25.55;40.81;94397.63;5034920;28;20039;-77
2021/05/02 01:20:49;;;;;;;1.77;1.00;;;;;;;25.56;41.16;94392.88;5036808;28;20545;-77
2021/05/02 01:23:20;;;;;;;2.33;1.25;;;;;;;25.54;41.50;94373.53;5037747;28;20032;-77
2021/05/02 01:25:45;;;;;;;2.65;1.10;;;;;;;25.53;40.77;94372.06;5035036;28;20417;-77
2021/05/02 01:28:11;;;;;;;2.22;0.93;;;;;;;25.53;41.03;94377.53;5052342;28;20020;-77
2021/05/02 01:30:37;;;;;;;3.42;1.00;;;;;;;25.50;41.47;94378.63;5035914;28;20684;-78
2021/05/02 01:33:02;;;;;;;2.05;1.20;;;;;;;25.53;40.81;94380.28;5036430;28;20021;-78
2021/05/02 01:35:28;;;;;;;1.80;1.13;;;;;;;25.49;41.29;94366.25;5037310;28;20136;-77
2021/05/02 01:37:53;;;;;;;3.75;1.48;;;;;;;25.55;40.90;94380.50;5037181;28;20485;-77
2021/05/02 01:40:19;;;;;;;1.88;1.17;;;;;;;25.49;41.40;94333.44;5036174;28;20041;-78
2021/05/02 01:42:45;;;;;;;2.58;1.10;;;;;;;25.31;40.96;94318.75;5037387;28;20029;-78
2021/05/02 01:45:11;;;;;;;2.70;0.95;;;;;;;25.46;41.49;94356.38;5037914;28;20451;-78
2021/05/02 01:47:42;;;;;;;2.40;1.08;;;;;;;25.26;40.94;94316.19;5037369;28;20128;-78
2021/05/02 01:50:08;;;;;;;1.77;1.13;;;;;;;25.52;41.39;94359.69;5034916;28;20025;-78
2021/05/02 01:52:52;;;;;;;1.85;1.30;;;;;;;25.21;41.35;94324.53;5035634;28;20033;-78
2021/05/02 01:55:17;;;;;;;3.10;1.48;;;;;;;25.36;41.29;94347.19;5035570;28;20025;-78
2021/05/02 01:57:43;;;;;;;2.35;1.20;;;;;;;25.50;41.67;94367.69;5035760;28;20029;-78
2021/05/02 02:00:25;;;;;;;3.35;1.20;;;;;;;25.36;41.33;94352.66;5034582;28;20536;-77
2021/05/02 02:02:53;;;;;;;2.35;1.25;;;;;;;24.98;41.44;94313.41;5036512;28;20107;-77
2021/05/02 02:05:22;;;;;;;2.00;1.17;;;;;;;25.52;41.00;94376.09;5034875;28;20021;-78
2021/05/02 02:07:48;;;;;;;2.78;1.25;;;;;;;25.19;41.38;94338.72;5036505;28;20044;-78
2021/05/02 02:10:16;;;;;;;1.58;0.98;;;;;;;25.51;41.55;94386.28;5026778;28;20493;-77
2021/05/02 02:12:41;;;;;;;2.13;1.05;;;;;;;25.46;41.56;94357.09;5036543;28;20032;-77
2021/05/02 02:15:08;;;;;;;2.38;1.25;;;;;;;25.45;41.17;94387.72;5027534;28;20471;-79
2021/05/02 02:17:33;;;;;;;2.42;1.13;;;;;;;25.50;41.20;94378.63;5035547;28;20537;-78
2021/05/02 02:19:59;;;;;;;2.30;1.00;;;;;;;25.47;41.35;94363.28;5037203;28;20021;-78
2021/05/02 02:22:25;;;;;;;1.83;1.13;;;;;;;25.18;41.33;94336.53;5036667;28;20021;-78
2021/05/02 02:24:56;;;;;;;2.72;1.00;;;;;;;25.24;41.59;94340.56;5035651;28;20485;-78
2021/05/02 02:27:24;;;;;;;1.73;1.35;;;;;;;25.17;41.04;94335.81;5018670;28;20029;-78
2021/05/02 02:29:49;;;;;;;1.80;1.10;;;;;;;25.49;41.35;94368.97;5027546;28;20138;-78
2021/05/02 02:32:16;;;;;;;1.73;0.90;;;;;;;25.44;40.98;94342.50;5037463;28;20064;-78
2021/05/02 02:34:43;;;;;;;2.70;1.30;;;;;;;24.98;41.13;94282.63;5040033;28;20084;-78
2021/05/02 02:37:14;;;;;;;2.45;1.50;;;;;;;25.46;40.99;94343.44;5038850;28;20021;-77
2021/05/02 02:39:45;;;;;;;2.75;1.35;;;;;;;25.43;41.55;94347.25;5040313;28;20116;-78
2021/05/02 02:42:12;;;;;;;2.05;1.17;;;;;;;25.47;40.98;94341.41;5039264;28;20447;-77
2021/05/02 02:44:38;;;;;;;2.58;1.00;;;;;;;25.46;41.20;94350.91;5039433;28;20596;-78
2021/05/02 02:47:04;;;;;;;2.65;1.00;;;;;;;25.48;41.00;94351.81;5039410;28;20449;-77
2021/05/02 02:49:29;;;;;;;1.75;1.08;;;;;;;25.47;41.74;94360.56;5039442;28;20063;-77
2021/05/02 02:51:54;;;;;;;1.85;1.38;;;;;;;25.43;41.62;94362.91;5040717;28;20021;-78
2021/05/02 02:54:20;;;;;;;1.77;1.33;;;;;;;25.48;41.52;94372.97;5022314;28;20024;-78
2021/05/02 02:56:45;;;;;;;2.40;1.20;;;;;;;25.21;41.20;94325.25;5030811;28;20044;-77
2021/05/02 02:59:26;;;;;;;2.75;1.35;;;;;;;25.46;40.95;94368.03;5038505;28;20029;-78
2021/05/02 03:01:52;;;;;;;1.80;1.20;;;;;;;25.46;41.53;94378.25;5030587;28;20533;-78
2021/05/02 03:04:17;;;;;;;2.78;1.30;;;;;;;25.41;41.21;94376.38;5055850;28;20079;-78
2021/05/02 03:06:43;;;;;;;2.20;1.02;;;;;;;25.46;41.40;94373.50;5040266;28;20083;-78
2021/05/02 03:09:08;;;;;;;2.20;1.40;;;;;;;25.46;41.70;94367.31;5039112;28;20037;-78
2021/05/02 03:11:34;;;;;;;2.22;1.38;;;;;;;25.44;41.29;94380.78;5039763;28;20033;-78
2021/05/02 03:13:59;;;;;;;2.58;1.20;;;;;;;25.44;41.38;94386.22;5039484;28;20047;-77
2021/05/02 03:16:28;;;;;;;1.50;1.08;;;;;;;25.44;41.43;94375.31;5038487;28;20037;-78
2021/05/02 03:19:01;;;;;;;1.83;1.10;;;;;;;25.44;41.40;94375.31;5039014;28;20147;-78
2021/05/02 03:21:44;;;;;;;2.55;1.50;;;;;;;25.44;41.78;94380.78;5030632;28;20029;-78
2021/05/02 03:24:09;;;;;;;2.08;1.17;;;;;;;25.43;41.90;94362.91;5039414;28;20041;-78
2021/05/02 03:26:35;;;;;;;2.55;1.23;;;;;;;25.14;41.57;94330.66;5039138;28;20025;-78
2021/05/02 03:29:02;;;;;;;2.20;1.08;;;;;;;25.43;41.80;94369.09;5039586;28;20028;-78
2021/05/02 03:31:32;;;;;;;2.33;1.20;;;;;;;25.38;41.10;94350.13;5057421;28;20037;-78
2021/05/02 03:34:01;;;;;;;2.28;1.08;;;;;;;25.44;41.94;94397.16;5065694;28;20028;-75
2021/05/02 03:36:45;;;;;;;2.63;1.20;;;;;;;25.44;41.17;94356.16;5064931;28;20018;-77
2021/05/02 03:39:11;;;;;;;1.80;1.13;;;;;;;25.43;41.16;94390.25;5066886;28;20036;-77
2021/05/02 03:41:36;;;;;;;3.50;1.40;;;;;;;25.38;41.81;94356.34;5058408;28;20497;-78
2021/05/02 03:44:02;;;;;;;2.10;1.27;;;;;;;25.20;41.68;94323.78;5049408;28;20026;-77
2021/05/02 03:46:28;;;;;;;3.22;1.33;;;;;;;25.43;41.48;94373.84;5045620;28;20029;-78
2021/05/02 03:48:58;;;;;;;3.22;1.40;;;;;;;25.40;41.72;94342.13;5033508;28;20030;-77
2021/05/02 03:51:25;;;;;;;2.28;1.10;;;;;;;25.06;41.60;94341.53;5045345;28;20095;-78
2021/05/02 03:53:50;;;;;;;2.28;1.40;;;;;;;25.45;41.29;94365.84;5041602;28;20029;-78
2021/05/02 03:56:38;;;;;;;1.88;1.05;;;;;;;25.44;41.67;94399.91;5038145;28;20502;-78
2021/05/02 03:59:08;;;;;;;2.03;1.20;;;;;;;25.46;41.65;94367.31;5037896;28;20033;-78
2021/05/02 04:01:33;;;;;;;;;;;;;;;25.43;41.89;94366.38;5039614;28;20484;-78
2021/05/02 04:03:59;;;;;;;2.47;1.10;;;;;;;25.43;41.83;94363.63;5038186;28;20003;-78
2021/05/02 04:06:26;;;;;;;3.00;1.83;;;;;;;25.47;40.96;94385.16;5037011;28;20033;-78
2021/05/02 04:08:51;;;;;;;2.33;1.48;;;;;;;25.46;41.67;94380.97;5038530;28;20056;-78
2021/05/02 04:11:17;;;;;;;3.60;1.83;;;;;;;25.37;41.24;94371.25;5036342;28;20529;-77
2021/05/02 04:13:42;;;;;;;4.78;1.70;;;;;;;25.47;41.05;94374.22;5039145;28;20029;-77
2021/05/02 04:16:07;;;;;;;2.33;1.23;;;;;;;25.48;41.30;94386.63;5038727;28;20033;-78
2021/05/02 04:18:33;;;;;;;3.13;1.50;;;;;;;25.46;41.77;94383.72;5038111;28;20027;-78
2021/05/02 04:20:58;;;;;;;3.00;1.30;;;;;;;25.46;41.44;94359.09;5038691;28;20417;-78
2021/05/02 04:23:24;;;;;;;2.70;1.40;;;;;;;25.39;41.19;94352.31;5053830;28;20036;-78
2021/05/02 04:25:49;;;;;;;3.72;1.52;;;;;;;25.47;41.78;94363.28;5037696;28;20033;-78
2021/05/02 04:28:15;;;;;;;2.47;1.23;;;;;;;25.22;41.29;94337.66;5038512;28;20030;-78
2021/05/02 04:30:40;;;;;;;2.20;1.15;;;;;;;25.50;41.46;94373.91;5037382;28;20551;-78
2021/05/02 04:33:07;;;;;;;1.77;1.20;;;;;;;25.50;41.53;94362.22;5038167;28;20025;-78
2021/05/02 04:35:33;;;;;;;2.88;1.40;;;;;;;25.29;41.60;94361.56;5036214;28;20442;-78
2021/05/02 04:37:58;;;;;;;2.55;1.42;;;;;;;25.53;41.28;94374.81;5038110;28;20431;-74
2021/05/02 04:40:24;;;;;;;2.17;1.20;;;;;;;25.53;41.60;94366.59;5037652;28;20116;-77
2021/05/02 04:42:50;;;;;;;2.05;1.30;;;;;;;25.53;41.15;94383.00;5037517;28;20057;-78
2021/05/02 04:45:15;;;;;;;2.28;1.10;;;;;;;25.55;41.30;94383.22;5038325;28;20036;-77
2021/05/02 04:47:41;;;;;;;2.42;1.15;;;;;;;25.56;40.81;94365.53;5036852;28;20025;-78
2021/05/02 04:50:07;;;;;;;2.80;1.30;;;;;;;25.57;41.26;94375.19;5053079;28;20560;-78
2021/05/02 04:52:32;;;;;;;3.80;1.50;;;;;;;25.28;40.96;94362.09;5037970;28;20144;-78
2021/05/02 04:54:58;;;;;;;2.45;1.45;;;;;;;25.52;41.44;94365.16;5035495;28;20030;-78
2021/05/02 04:57:23;;;;;;;3.47;1.50;;;;;;;25.30;41.20;94322.00;5053375;28;20059;-78
2021/05/02 04:59:49;;;;;;;2.20;1.50;;;;;;;25.61;41.29;94372.88;5036739;28;20044;-78
2021/05/02 05:02:14;;;;;;;2.45;1.63;;;;;;;25.59;41.45;94370.66;5037694;28;20050;-78
2021/05/02 05:04:40;;;;;;;2.72;1.10;;;;;;;25.61;41.36;94345.53;5052577;28;20463;-78
2021/05/02 05:07:05;;;;;;;3.13;1.20;;;;;;;25.60;41.37;94344.03;5036007;28;20554;-76
2021/05/02 05:09:31;;;;;;;2.28;1.40;;;;;;;25.62;40.81;94346.97;5036506;28;20028;-77
2021/05/02 05:11:56;;;;;;;2.67;1.27;;;;;;;25.60;41.11;94341.31;5052991;28;20398;-78
2021/05/02 05:14:22;;;;;;;1.92;1.10;;;;;;;25.57;40.95;94339.66;5037176;28;20424;-77
2021/05/02 05:16:47;;;;;;;2.00;1.45;;;;;;;25.60;41.32;94357.72;5037654;28;20111;-78
2021/05/02 05:19:13;;;;;;;2.80;1.35;;;;;;;25.12;40.98;94279.28;5037815;28;20040;-78
2021/05/02 05:21:38;;;;;;;2.72;1.30;;;;;;;25.60;41.40;94335.84;5036127;28;20482;-78
2021/05/02 05:24:05;;;;;;;3.33;1.35;;;;;;;25.63;40.74;94353.91;5036779;28;20036;-77
2021/05/02 05:26:30;;;;;;;2.15;1.00;;;;;;;25.64;41.23;94350.66;5036964;28;20049;-78
2021/05/02 05:28:56;;;;;;;3.38;1.40;;;;;;;25.65;40.73;94362.31;5036976;28;20025;-77
2021/05/02 05:31:21;;;;;;;2.42;1.00;;;;;;;25.65;41.27;94378.72;5037003;28;20068;-78
2021/05/02 05:33:46;;;;;;;2.47;1.30;;;;;;;25.67;41.16;94387.16;5037346;28;20032;-78
2021/05/02 05:36:14;;;;;;;2.80;1.30;;;;;;;25.66;41.57;94394.59;5052263;28;20440;-78
2021/05/02 05:38:39;;;;;;;2.08;1.33;;;;;;;25.69;40.66;94396.25;5037318;28;20508;-77
2021/05/02 05:41:05;;;;;;;3.53;1.30;;;;;;;25.69;41.02;94395.53;5036897;28;20079;-78
2021/05/02 05:43:30;;;;;;;1.98;1.05;;;;;;;25.45;41.34;94349.44;5037709;28;20021;-78
2021/05/02 05:45:55;;;;;;;1.85;1.20;;;;;;;25.70;41.34;94386.78;5035428;28;20029;-78
2021/05/02 05:48:21;;;;;;;1.88;1.15;;;;;;;25.72;41.27;94378.78;5037534;28;20021;-77
2021/05/02 05:50:48;;;;;;;4.10;1.40;;;;;;;25.51;41.00;94358.22;5036925;28;20025;-77
2021/05/02 05:53:15;;;;;;;2.58;1.20;;;;;;;25.68;40.59;94369.44;5037077;28;20025;-77
2021/05/02 05:55:40;;;;;;;2.20;1.30;;;;;;;25.79;40.34;94378.81;5037153;28;20798;-78
2021/05/02 05:58:06;;;;;;;2.50;1.30;;;;;;;25.69;40.86;94357.25;5036309;28;20029;-77
2021/05/02 06:00:31;;;;;;;2.95;1.13;;;;;;;25.80;40.59;94363.88;5035726;28;20025;-78
2021/05/02 06:02:57;;;;;;;2.10;1.08;;;;;;;25.48;40.52;94337.41;5052845;28;20040;-77
2021/05/02 06:05:22;;;;;;;1.55;1.02;;;;;;;25.82;41.14;94382.47;5035150;28;20033;-78
2021/05/02 06:07:48;;;;;;;3.33;1.13;;;;;;;25.82;40.77;94371.53;5037752;28;20075;-77
2021/05/02 06:10:13;;;;;;;2.90;1.35;;;;;;;25.83;40.65;94371.00;5040824;28;20060;-77
2021/05/02 06:12:39;;;;;;;2.13;1.30;;;;;;;25.83;41.13;94365.53;5038551;28;20044;-77
2021/05/02 06:15:05;;;;;;;3.03;1.45;;;;;;;25.78;40.57;94370.41;5041003;28;20037;-77
2021/05/02 06:17:30;;;;;;;2.22;1.00;;;;;;;25.83;41.07;94373.72;5040628;28;20460;-78
2021/05/02 06:19:56;;;;;;;1.95;1.02;;;;;;;25.81;40.96;94381.75;5040364;28;20036;-77
2021/05/02 06:22:21;;;;;;;1.83;1.20;;;;;;;25.56;40.64;94349.13;5040672;28;20025;-77
2021/05/02 06:24:47;;;;;;;2.58;1.02;;;;;;;25.82;41.00;94372.25;5039312;28;20049;-78
2021/05/02 06:27:12;;;;;;;2.38;1.20;;;;;;;25.81;40.48;94381.75;5040125;28;20021;-77
2021/05/02 06:29:38;;;;;;;2.10;1.30;;;;;;;25.80;41.10;94369.34;5040476;28;20022;-77
2021/05/02 06:32:04;;;;;;;2.65;0.98;;;;;;;25.80;41.17;94365.88;5039903;28;20140;-77
2021/05/02 06:34:29;;;;;;;1.73;1.20;;;;;;;25.77;41.04;94358.00;5040981;28;20477;-77
2021/05/02 06:36:58;;;;;;;1.77;1.08;;;;;;;25.84;40.57;94385.41;5040348;28;20409;-77
2021/05/02 06:39:25;;;;;;;2.35;1.20;;;;;;;25.87;40.29;94389.78;5039967;28;20022;-77
2021/05/02 06:41:50;;;;;;;2.15;1.10;;;;;;;25.80;40.46;94374.81;5039916;28;20038;-78
2021/05/02 06:44:16;;;;;;;2.25;1.20;;;;;;;25.88;40.43;94381.03;5040422;28;20412;-77
2021/05/02 06:46:41;;;;;;;2.20;1.30;;;;;;;25.59;40.39;94337.09;5039855;28;20040;-77
2021/05/02 06:49:07;;;;;;;2.50;1.10;;;;;;;25.90;40.25;94373.03;5037879;28;20029;-77
2021/05/02 06:51:33;;;;;;;1.95;1.10;;;;;;;25.49;40.39;94317.03;5039080;28;20082;-77
2021/05/02 06:53:58;;;;;;;2.42;1.45;;;;;;;25.64;40.28;94338.97;5038562;28;20032;-77
2021/05/02 06:56:24;;;;;;;1.48;1.00;;;;;;;25.92;40.20;94364.28;5038715;28;20106;-77
2021/05/02 06:58:50;;;;;;;1.98;1.02;;;;;;;25.88;40.42;94359.16;5039386;28;20418;-77
2021/05/02 07:01:16;;;;;;;2.28;1.20;;;;;;;25.90;40.67;94351.16;5029414;28;20049;-78
2021/05/02 07:03:41;;;;;;;1.42;0.90;;;;;;;25.69;40.52;94318.97;5039495;28;20035;-78
2021/05/02 07:06:07;;;;;;;2.30;0.95;;;;;;;25.94;40.13;94362.47;5039406;28;20025;-77
2021/05/02 07:08:32;;;;;;;1.85;1.30;;;;;;;25.92;40.12;94359.53;5039555;28;20033;-77
2021/05/02 07:10:58;;;;;;;2.58;1.70;;;;;;;25.95;40.04;94363.94;5039573;28;20064;-77
2021/05/02 07:13:24;;;;;;;1.50;0.93;;;;;;;25.94;40.19;94357.00;5054910;28;20041;-77
2021/05/02 07:15:50;;;;;;;2.35;1.10;;;;;;;25.90;40.52;94350.41;5038189;28;20037;-78
2021/05/02 07:18:16;;;;;;;2.17;1.17;;;;;;;25.91;40.59;94358.06;5037763;28;20119;-77
2021/05/02 07:20:41;;;;;;;1.40;1.15;;;;;;;25.38;40.69;94285.25;5038570;28;20033;-77
2021/05/02 07:23:07;;;;;;;2.80;1.00;;;;;;;25.70;40.56;94342.31;5038995;28;20033;-77
2021/05/02 07:25:32;;;;;;;1.88;0.93;;;;;;;25.97;40.27;94382.53;5037677;28;20467;-77
2021/05/02 07:27:57;;;;;;;4.00;1.58;;;;;;;25.97;40.51;94394.22;5040034;28;20086;-77
2021/05/02 07:30:23;;;;;;;2.63;1.20;;;;;;;25.92;40.44;94375.97;5037963;28;20543;-77
2021/05/02 07:32:48;;;;;;;2.10;1.17;;;;;;;25.98;40.78;94392.22;5039054;28;20037;-77
2021/05/02 07:35:14;;;;;;;2.25;1.02;;;;;;;25.64;40.48;94358.13;5037061;28;20053;-77
2021/05/02 07:37:39;;;;;;;3.25;1.10;;;;;;;25.52;40.64;94354.94;5036850;28;20504;-77
2021/05/02 07:40:06;;;;;;;2.53;1.17;;;;;;;25.97;40.35;94410.63;5036776;28;20429;-77
2021/05/02 07:42:32;;;;;;;2.50;1.00;;;;;;;25.99;40.18;94410.09;5038205;28;20033;-77
2021/05/02 07:44:57;;;;;;;2.13;1.05;;;;;;;25.94;40.86;94413.72;5039395;28;20036;-77
2021/05/02 07:47:23;;;;;;;1.83;1.10;;;;;;;25.97;40.35;94416.09;5038481;28;20368;-78
2021/05/02 07:49:48;;;;;;;2.05;1.08;;;;;;;25.94;40.78;94414.44;5039512;28;20511;-76
2021/05/02 07:52:14;;;;;;;3.45;1.10;;;;;;;25.99;40.29;94418.28;5038615;28;20082;-77
2021/05/02 07:54:39;;;;;;;1.90;0.93;;;;;;;26.00;40.12;94423.22;5038546;28;20443;-77
2021/05/02 07:57:05;;;;;;;1.42;0.95;;;;;;;25.98;40.21;94420.31;5039019;28;20025;-77
2021/05/02 07:59:30;;;;;;;2.05;1.00;;;;;;;26.01;40.16;94413.03;5038952;28;20037;-77
2021/05/02 08:01:56;;;;;;;2.95;1.00;;;;;;;26.01;40.83;94421.25;5036395;28;20496;-77
2021/05/02 08:04:21;;;;;;;2.25;0.82;;;;;;;26.01;40.54;94411.03;5037903;28;20071;-76
2021/05/02 08:06:47;;;;;;;1.75;0.98;;;;;;;26.03;40.79;94413.22;5037160;28;20550;-77
2021/05/02 08:09:12;;;;;;;2.60;1.10;;;;;;;26.03;40.77;94424.88;5038549;28;20033;-77
2021/05/02 08:11:38;;;;;;;1.90;1.10;;;;;;;26.02;40.76;94412.50;5037137;28;20017;-77
2021/05/02 08:14:04;;;;;;;1.50;0.90;;;;;;;25.99;40.73;94419.06;5038194;28;20099;-77
2021/05/02 08:16:29;;;;;;;2.40;1.25;;;;;;;26.03;40.41;94433.09;5037905;28;20088;-77
2021/05/02 08:18:55;;;;;;;2.58;1.00;;;;;;;26.01;40.16;94415.78;5038389;28;20033;-77
2021/05/02 08:21:23;;;;;;;1.85;1.02;;;;;;;25.98;40.63;94422.31;5038685;28;20029;-76
2021/05/02 08:23:48;;;;;;;2.15;0.98;;;;;;;26.05;40.71;94427.84;5038827;28;20078;-77
2021/05/02 08:26:14;;;;;;;1.70;0.90;;;;;;;25.60;40.09;94365.91;5053376;28;20044;-78
2021/05/02 08:28:39;;;;;;;1.55;0.90;;;;;;;26.07;40.58;94424.53;5037927;28;20036;-77
2021/05/02 08:31:05;;;;;;;2.83;1.25;;;;;;;26.07;40.75;94433.50;5037529;28;20028;-77
2021/05/02 08:33:30;;;;;;;1.75;1.02;;;;;;;26.08;40.19;94434.94;5037582;28;20034;-77
2021/05/02 08:35:56;;;;;;;1.42;0.90;;;;;;;26.08;40.69;94415.78;5037518;28;20469;-77
2021/05/02 08:38:21;;;;;;;1.73;1.02;;;;;;;26.08;40.65;94421.25;5037442;28;20493;-77
2021/05/02 08:40:46;;;;;;;1.67;0.90;;;;;;;26.09;40.14;94428.19;5037131;28;20029;-78
2021/05/02 08:43:12;;;;;;;2.17;0.75;;;;;;;25.82;40.50;94399.63;5037614;28;20025;-77
2021/05/02 08:45:38;;;;;;;1.85;1.05;;;;;;;25.98;40.36;94409.38;5036203;28;20036;-77
2021/05/02 08:48:04;;;;;;;2.05;1.08;;;;;;;26.08;40.21;94426.72;5037924;28;20025;-77
2021/05/02 08:50:30;;;;;;;2.10;0.75;;;;;;;26.09;40.37;94433.66;5037058;28;20528;-76
2021/05/02 08:52:55;;;;;;;1.83;0.65;;;;;;;26.01;40.40;94411.03;5037804;28;20055;-77
2021/05/02 08:55:21;;;;;;;1.63;0.80;;;;;;;26.10;40.30;94417.97;5052621;28;20029;-77
2021/05/02 08:57:46;;;;;;;2.00;1.10;;;;;;;26.05;40.47;94411.41;5038288;28;20045;-77
2021/05/02 09:00:17;;;;;;;3.03;1.10;;;;;;;26.01;40.41;94402.81;5036499;28;20032;-77
2021/05/02 09:02:55;;;;;;;1.90;1.02;;;;;;;26.08;40.43;94420.53;5036897;28;20140;-77
2021/05/02 09:05:21;;;;;;;2.15;1.00;;;;;;;25.82;40.58;94361.31;5037556;28;20021;-77
2021/05/02 09:07:46;;;;;;;2.40;1.10;;;;;;;25.90;40.42;94362.09;5035331;28;20029;-77
2021/05/02 09:10:12;;;;;;;2.28;1.10;;;;;;;26.09;40.30;94395.34;5037131;28;20041;-77
2021/05/02 09:12:38;;;;;;;1.85;1.05;;;;;;;25.99;40.30;94391.69;5037250;28;20032;-77
2021/05/02 09:15:22;;;;;;;3.10;1.35;;;;;;;26.01;40.54;94367.25;5035831;28;20540;-76
2021/05/02 09:18:14;;;;;;;2.72;1.30;;;;;;;26.07;40.04;94370.53;5035631;28;20325;-77
2021/05/02 09:20:40;;;;;;;2.42;1.00;;;;;;;26.12;40.26;94369.63;5036826;28;20025;-77
2021/05/02 09:23:05;;;;;;;1.63;0.82;;;;;;;26.08;40.56;94366.50;5037218;28;20787;-77
2021/05/02 09:25:43;;;;;;;1.95;1.20;;;;;;;26.12;40.52;94366.91;5035653;28;20035;-77
2021/05/02 09:28:09;;;;;;;2.05;0.90;;;;;;;25.79;40.46;94335.03;5034945;28;20026;-77
2021/05/02 09:30:34;;;;;;;2.20;1.10;;;;;;;25.90;40.13;94329.25;5036012;28;20029;-77
2021/05/02 09:33:00;;;;;;;2.35;1.20;;;;;;;26.07;40.61;94365.06;5052126;28;20038;-77
2021/05/02 09:35:32;;;;;;;2.03;1.38;;;;;;;26.13;40.67;94365.63;5037394;28;20045;-77
2021/05/02 09:38:14;;;;;;;2.20;1.13;;;;;;;26.14;40.61;94364.34;5035706;28;20013;-77
2021/05/02 09:40:49;;;;;;;1.73;0.80;;;;;;;26.14;40.25;94363.63;5038025;28;20420;-77
2021/05/02 09:43:45;;;;;;;1.95;0.95;;;;;;;26.13;40.35;94345.72;5043677;28;20480;-77
2021/05/02 09:49:02;;;;;;;2.58;1.55;;;;;;;26.14;40.03;94347.94;5044447;28;20102;-77
2021/05/02 09:51:29;;;;;;;2.35;1.00;;;;;;;26.12;40.08;94339.53;5042059;28;20033;-77
2021/05/02 09:54:05;;;;;;;3.17;1.13;;;;;;;26.16;40.55;94345.41;5043160;28;20489;-77
2021/05/02 09:56:41;;;;;;;2.47;1.45;;;;;;;26.16;40.18;94345.41;5043500;28;20025;-77
2021/05/02 09:59:22;;;;;;;2.08;1.00;;;;;;;26.12;39.93;94339.53;5042554;28;20026;-76
2021/05/02 10:02:12;;;;;;;2.30;0.70;;;;;;;26.18;40.01;94347.59;5043094;28;20028;-78
2021/05/02 10:04:44;;;;;;;;;;;;;;;26.17;40.18;94346.84;5043313;28;20131;-77
2021/05/02 10:07:10;;;;;;;2.20;1.10;;;;;;;26.16;40.48;94350.88;5041749;28;20042;-77
2021/05/02 10:09:36;;;;;;;2.47;0.80;;;;;;;26.13;40.15;94346.47;5043726;28;20439;-77
2021/05/02 10:12:03;;;;;;;3.03;1.23;;;;;;;26.16;40.61;94345.41;5041471;28;20083;-77
2021/05/02 10:14:28;;;;;;;1.73;1.00;;;;;;;26.15;40.42;94332.97;5041746;28;20033;-77
2021/05/02 10:16:53;;;;;;;3.53;0.98;;;;;;;26.18;40.29;94334.63;5042171;28;20393;-77
2021/05/02 10:19:19;;;;;;;1.98;0.95;;;;;;;26.07;40.19;94310.34;5043984;28;20538;-76
2021/05/02 10:21:44;;;;;;;2.42;1.05;;;;;;;26.21;40.27;94330.06;5033060;28;20026;-76
2021/05/02 10:24:10;;;;;;;2.28;1.05;;;;;;;26.21;40.38;94319.84;5042926;28;20790;-76
2021/05/02 10:26:35;;;;;;;1.77;0.88;;;;;;;26.21;40.39;94314.38;5033668;28;20489;-77
2021/05/02 10:29:01;;;;;;;3.70;1.20;;;;;;;26.20;40.12;94318.38;5043481;28;20029;-76
2021/05/02 10:31:29;;;;;;;2.92;1.20;;;;;;;26.12;40.35;94306.69;5042396;28;20032;-77
2021/05/02 10:33:54;;;;;;;3.58;1.10;;;;;;;26.23;40.07;94319.31;5041448;28;20050;-76
2021/05/02 10:36:21;;;;;;;2.50;1.20;;;;;;;26.23;40.06;94335.72;5043304;28;20083;-77
2021/05/02 10:38:53;;;;;;;2.50;1.13;;;;;;;26.23;39.89;94320.03;5042440;28;20037;-76
2021/05/02 10:41:38;;;;;;;2.67;0.90;;;;;;;25.91;40.26;94276.00;5042786;28;20036;-76
2021/05/02 10:44:03;;;;;;;2.42;1.00;;;;;;;26.24;40.02;94329.72;5026166;28;20033;-77
2021/05/02 10:46:41;;;;;;;2.20;1.10;;;;;;;26.24;40.40;94329.72;5042997;28;20497;-77
2021/05/02 10:49:06;;;;;;;3.40;1.10;;;;;;;26.03;39.93;94293.53;5042908;28;20031;-77
2021/05/02 10:51:34;;;;;;;3.10;0.98;;;;;;;26.01;39.99;94268.72;5042069;28;20030;-77
2021/05/02 10:54:21;;;;;;;2.90;0.80;;;;;;;26.24;40.60;94307.81;5038829;28;20029;-77
2021/05/02 10:56:57;;;;;;;2.67;1.17;;;;;;;26.25;40.05;94309.28;5039781;28;20021;-77
2021/05/02 10:59:25;;;;;;;4.78;1.13;;;;;;;26.26;39.89;94305.25;5038591;28;20055;-77
2021/05/02 11:01:50;;;;;;;2.92;1.25;;;;;;;26.25;40.14;94298.34;5039299;28;20044;-77
2021/05/02 11:04:16;;;;;;;2.67;1.05;;;;;;;25.95;40.45;94238.06;5039825;28;20116;-77
2021/05/02 11:06:41;;;;;;;2.38;1.00;;;;;;;26.27;40.57;94290.31;5038484;28;20060;-77
2021/05/02 11:09:09;;;;;;;2.42;1.08;;;;;;;26.04;40.46;94264.91;5041022;28;20041;-77
2021/05/02 11:16:38;;;;;;;1.95;0.98;;;;;;;26.29;40.26;94293.25;5039991;28;20225;-77
2021/05/02 11:19:04;;;;;;;2.65;0.90;;;;;;;26.29;39.84;94283.03;5040071;28;20033;-76
2021/05/02 11:21:51;;;;;;;3.35;1.00;;;;;;;26.30;40.01;94305.66;5038634;28;20089;-77
2021/05/02 11:24:17;;;;;;;4.28;1.60;;;;;;;26.29;40.42;94283.03;5038900;28;20034;-77
2021/05/02 11:29:30;;;;;;;3.47;1.00;;;;;;;26.26;40.17;94288.81;5038210;28;20045;-77
2021/05/02 11:31:56;;;;;;;3.00;1.20;;;;;;;26.03;40.34;94233.34;5038396;28;20029;-76
2021/05/02 11:34:21;;;;;;;2.95;1.20;;;;;;;26.32;40.00;94275.72;5039855;28;20060;-77
2021/05/02 11:36:47;;;;;;;3.28;0.88;;;;;;;26.33;40.03;94266.25;5039988;28;20037;-77
2021/05/02 11:39:30;;;;;;;4.18;1.30;;;;;;;26.32;39.79;94253.81;5039542;28;20416;-75
2021/05/02 11:42:03;;;;;;;2.95;1.00;;;;;;;26.33;39.78;94255.28;5040577;28;20117;-76
2021/05/02 11:44:28;;;;;;;3.28;0.80;;;;;;;26.34;39.92;94240.34;5041319;28;20030;-76
2021/05/02 11:46:54;;;;;;;2.60;1.10;;;;;;;26.35;40.46;94252.72;5053897;28;20033;-76